Weather at Bierset airport - EBLG


metar: EBLG 190920Z 05013KT 9000 BKN017 08/04 Q1017 NOSIG

35 minuten geleden, om 09:20 UTC, de wind blies met windsnelheden van 6.7 meter per seconde(15.0 mijl per uur) vanuit Noordoost nabij Bierset airport. De temperatuur was 8 °C (46 °F), en de barometerdruk was 1,017 hPa (30.03 inHg). De relatieve vochtigheid was 75.8%. er was gebroken bewolking op een hoogte van 518 meter (1700 voet). De zichtbaarheid was 9.0 kilometer (5.6 mijl).

temperature image   windir image sky image 

Last 24 hour graph Bierset airport - EBLG